sensor_id;sensor_type;location;lat;lon;timestamp;temperature;humidity
64501;DHT22;50874;24.150;-110.320;2022-08-19T00:01:29;26.90;99.90
64501;DHT22;50874;24.150;-110.320;2022-08-19T00:04:02;26.80;99.90
64501;DHT22;50874;24.150;-110.320;2022-08-19T00:06:30;26.70;99.90
64501;DHT22;50874;24.150;-110.320;2022-08-19T00:08:58;26.70;99.90
64501;DHT22;50874;24.150;-110.320;2022-08-19T00:11:26;26.60;99.90
64501;DHT22;50874;24.150;-110.320;2022-08-19T00:13:54;26.60;99.90
64501;DHT22;50874;24.150;-110.320;2022-08-19T00:16:23;26.60;99.90
64501;DHT22;50874;24.150;-110.320;2022-08-19T00:18:50;26.60;99.90
64501;DHT22;50874;24.150;-110.320;2022-08-19T00:21:16;26.60;99.90
64501;DHT22;50874;24.150;-110.320;2022-08-19T00:23:43;26.60;99.90
64501;DHT22;50874;24.150;-110.320;2022-08-19T00:26:11;26.50;99.90
64501;DHT22;50874;24.150;-110.320;2022-08-19T00:28:37;26.50;99.90
64501;DHT22;50874;24.150;-110.320;2022-08-19T00:31:05;26.50;99.90
64501;DHT22;50874;24.150;-110.320;2022-08-19T00:33:32;26.50;99.90
64501;DHT22;50874;24.150;-110.320;2022-08-19T00:36:00;26.50;99.90
64501;DHT22;50874;24.150;-110.320;2022-08-19T00:38:27;26.50;99.90
64501;DHT22;50874;24.150;-110.320;2022-08-19T00:40:54;26.50;99.90
64501;DHT22;50874;24.150;-110.320;2022-08-19T00:43:23;26.50;99.90
64501;DHT22;50874;24.150;-110.320;2022-08-19T00:45:51;26.50;99.90
64501;DHT22;50874;24.150;-110.320;2022-08-19T00:48:19;26.50;99.90
64501;DHT22;50874;24.150;-110.320;2022-08-19T00:50:48;26.60;99.90
64501;DHT22;50874;24.150;-110.320;2022-08-19T00:53:20;26.60;99.90
64501;DHT22;50874;24.150;-110.320;2022-08-19T00:55:50;26.60;99.90
64501;DHT22;50874;24.150;-110.320;2022-08-19T00:58:20;26.60;99.90
64501;DHT22;50874;24.150;-110.320;2022-08-19T01:00:47;26.60;99.90
64501;DHT22;50874;24.150;-110.320;2022-08-19T01:03:17;26.60;99.90
64501;DHT22;50874;24.150;-110.320;2022-08-19T01:05:45;26.60;99.90
64501;DHT22;50874;24.150;-110.320;2022-08-19T01:08:12;26.70;99.90
64501;DHT22;50874;24.150;-110.320;2022-08-19T01:10:47;26.70;99.90
64501;DHT22;50874;24.150;-110.320;2022-08-19T01:13:15;26.70;99.90
64501;DHT22;50874;24.150;-110.320;2022-08-19T01:15:55;26.70;99.90
64501;DHT22;50874;24.150;-110.320;2022-08-19T01:18:24;26.70;99.90
64501;DHT22;50874;24.150;-110.320;2022-08-19T01:20:51;26.70;99.90
64501;DHT22;50874;24.150;-110.320;2022-08-19T01:23:19;26.70;99.90
64501;DHT22;50874;24.150;-110.320;2022-08-19T01:25:49;26.70;99.90
64501;DHT22;50874;24.150;-110.320;2022-08-19T01:28:21;26.70;99.90
64501;DHT22;50874;24.150;-110.320;2022-08-19T01:30:48;26.80;99.90
64501;DHT22;50874;24.150;-110.320;2022-08-19T01:33:15;26.80;99.90
64501;DHT22;50874;24.150;-110.320;2022-08-19T01:35:42;26.70;99.90
64501;DHT22;50874;24.150;-110.320;2022-08-19T01:38:18;26.80;99.90
64501;DHT22;50874;24.150;-110.320;2022-08-19T01:40:45;26.80;99.90
64501;DHT22;50874;24.150;-110.320;2022-08-19T01:43:12;26.80;99.90
64501;DHT22;50874;24.150;-110.320;2022-08-19T01:45:38;26.80;99.90
64501;DHT22;50874;24.150;-110.320;2022-08-19T01:48:06;26.80;99.90
64501;DHT22;50874;24.150;-110.320;2022-08-19T01:50:34;26.80;99.90
64501;DHT22;50874;24.150;-110.320;2022-08-19T01:53:02;26.90;99.90
64501;DHT22;50874;24.150;-110.320;2022-08-19T01:55:29;26.90;99.90
64501;DHT22;50874;24.150;-110.320;2022-08-19T01:57:59;26.90;99.90
64501;DHT22;50874;24.150;-110.320;2022-08-19T02:00:30;26.90;99.90
64501;DHT22;50874;24.150;-110.320;2022-08-19T02:02:57;26.80;99.90
64501;DHT22;50874;24.150;-110.320;2022-08-19T02:05:24;26.80;99.90
64501;DHT22;50874;24.150;-110.320;2022-08-19T02:07:51;26.80;99.90
64501;DHT22;50874;24.150;-110.320;2022-08-19T02:10:20;26.80;99.90
64501;DHT22;50874;24.150;-110.320;2022-08-19T02:12:48;26.80;99.90
64501;DHT22;50874;24.150;-110.320;2022-08-19T02:15:19;26.80;99.90
64501;DHT22;50874;24.150;-110.320;2022-08-19T02:17:47;26.80;99.90
64501;DHT22;50874;24.150;-110.320;2022-08-19T02:20:14;26.80;99.90
64501;DHT22;50874;24.150;-110.320;2022-08-19T02:22:42;26.80;99.90
64501;DHT22;50874;24.150;-110.320;2022-08-19T02:25:10;26.80;99.90
64501;DHT22;50874;24.150;-110.320;2022-08-19T02:27:38;26.80;99.90
64501;DHT22;50874;24.150;-110.320;2022-08-19T02:30:06;26.80;99.90
64501;DHT22;50874;24.150;-110.320;2022-08-19T02:32:33;26.80;99.90
64501;DHT22;50874;24.150;-110.320;2022-08-19T02:35:00;26.80;99.90
64501;DHT22;50874;24.150;-110.320;2022-08-19T02:37:26;26.80;99.90
64501;DHT22;50874;24.150;-110.320;2022-08-19T02:40:11;26.80;99.90
64501;DHT22;50874;24.150;-110.320;2022-08-19T02:42:38;26.80;99.90
64501;DHT22;50874;24.150;-110.320;2022-08-19T02:45:07;26.80;99.90
64501;DHT22;50874;24.150;-110.320;2022-08-19T02:47:34;26.80;99.90
64501;DHT22;50874;24.150;-110.320;2022-08-19T02:50:04;26.80;99.90
64501;DHT22;50874;24.150;-110.320;2022-08-19T02:52:32;26.80;99.90
64501;DHT22;50874;24.150;-110.320;2022-08-19T02:54:58;26.80;99.90
64501;DHT22;50874;24.150;-110.320;2022-08-19T02:57:26;26.70;99.90
64501;DHT22;50874;24.150;-110.320;2022-08-19T02:59:52;26.70;99.90
64501;DHT22;50874;24.150;-110.320;2022-08-19T03:02:19;26.70;99.90
64501;DHT22;50874;24.150;-110.320;2022-08-19T03:04:46;26.70;99.90
64501;DHT22;50874;24.150;-110.320;2022-08-19T03:07:16;26.70;99.90
64501;DHT22;50874;24.150;-110.320;2022-08-19T03:09:43;26.70;99.90
64501;DHT22;50874;24.150;-110.320;2022-08-19T03:12:10;26.60;99.90
64501;DHT22;50874;24.150;-110.320;2022-08-19T03:14:37;26.60;99.90
64501;DHT22;50874;24.150;-110.320;2022-08-19T03:17:04;26.60;99.90
64501;DHT22;50874;24.150;-110.320;2022-08-19T03:19:31;26.60;99.90
64501;DHT22;50874;24.150;-110.320;2022-08-19T03:21:58;26.60;99.90
64501;DHT22;50874;24.150;-110.320;2022-08-19T03:24:25;26.60;99.90
64501;DHT22;50874;24.150;-110.320;2022-08-19T03:26:53;26.60;99.90
64501;DHT22;50874;24.150;-110.320;2022-08-19T03:29:27;26.60;99.90
64501;DHT22;50874;24.150;-110.320;2022-08-19T03:31:54;26.60;99.90
64501;DHT22;50874;24.150;-110.320;2022-08-19T03:34:26;26.60;99.90
64501;DHT22;50874;24.150;-110.320;2022-08-19T03:36:55;26.60;99.90
64501;DHT22;50874;24.150;-110.320;2022-08-19T03:39:23;26.60;99.90
64501;DHT22;50874;24.150;-110.320;2022-08-19T03:41:51;26.60;99.90
64501;DHT22;50874;24.150;-110.320;2022-08-19T03:44:21;26.50;99.90
64501;DHT22;50874;24.150;-110.320;2022-08-19T03:46:53;26.50;99.90
64501;DHT22;50874;24.150;-110.320;2022-08-19T03:49:22;26.50;99.90
64501;DHT22;50874;24.150;-110.320;2022-08-19T03:51:49;26.50;99.90
64501;DHT22;50874;24.150;-110.320;2022-08-19T03:54:19;26.50;99.90
64501;DHT22;50874;24.150;-110.320;2022-08-19T03:56:48;26.40;99.90
64501;DHT22;50874;24.150;-110.320;2022-08-19T03:59:21;26.50;99.90
64501;DHT22;50874;24.150;-110.320;2022-08-19T04:01:52;26.50;99.90
64501;DHT22;50874;24.150;-110.320;2022-08-19T04:04:19;26.50;99.90
64501;DHT22;50874;24.150;-110.320;2022-08-19T04:06:45;26.50;99.90
64501;DHT22;50874;24.150;-110.320;2022-08-19T04:09:13;26.50;99.90
64501;DHT22;50874;24.150;-110.320;2022-08-19T04:11:46;26.50;99.90
64501;DHT22;50874;24.150;-110.320;2022-08-19T04:14:16;26.50;99.90
64501;DHT22;50874;24.150;-110.320;2022-08-19T04:16:44;26.50;99.90
64501;DHT22;50874;24.150;-110.320;2022-08-19T04:19:13;26.40;99.90
64501;DHT22;50874;24.150;-110.320;2022-08-19T04:21:40;26.40;99.90
64501;DHT22;50874;24.150;-110.320;2022-08-19T04:24:09;26.40;99.90
64501;DHT22;50874;24.150;-110.320;2022-08-19T04:26:36;26.40;99.90
64501;DHT22;50874;24.150;-110.320;2022-08-19T04:29:16;26.40;99.90
64501;DHT22;50874;24.150;-110.320;2022-08-19T04:31:44;26.40;99.90
64501;DHT22;50874;24.150;-110.320;2022-08-19T04:34:13;26.40;99.90
64501;DHT22;50874;24.150;-110.320;2022-08-19T04:36:42;26.40;99.90
64501;DHT22;50874;24.150;-110.320;2022-08-19T04:39:19;26.40;99.90
64501;DHT22;50874;24.150;-110.320;2022-08-19T04:41:46;26.40;99.90
64501;DHT22;50874;24.150;-110.320;2022-08-19T04:44:32;26.40;99.90
64501;DHT22;50874;24.150;-110.320;2022-08-19T04:46:59;26.30;99.90
64501;DHT22;50874;24.150;-110.320;2022-08-19T04:49:26;26.30;99.90
64501;DHT22;50874;24.150;-110.320;2022-08-19T04:51:53;26.30;99.90
64501;DHT22;50874;24.150;-110.320;2022-08-19T04:54:21;26.30;99.90
64501;DHT22;50874;24.150;-110.320;2022-08-19T04:56:49;26.30;99.90
64501;DHT22;50874;24.150;-110.320;2022-08-19T04:59:16;26.30;99.90
64501;DHT22;50874;24.150;-110.320;2022-08-19T05:01:44;26.30;99.90
64501;DHT22;50874;24.150;-110.320;2022-08-19T05:04:20;26.30;99.90
64501;DHT22;50874;24.150;-110.320;2022-08-19T05:06:50;26.30;99.90
64501;DHT22;50874;24.150;-110.320;2022-08-19T05:09:18;26.30;99.90
64501;DHT22;50874;24.150;-110.320;2022-08-19T05:11:45;26.30;99.90
64501;DHT22;50874;24.150;-110.320;2022-08-19T05:14:12;26.30;99.90
64501;DHT22;50874;24.150;-110.320;2022-08-19T05:16:39;26.30;99.90
64501;DHT22;50874;24.150;-110.320;2022-08-19T05:19:06;26.30;99.90
64501;DHT22;50874;24.150;-110.320;2022-08-19T05:21:51;26.30;99.90
64501;DHT22;50874;24.150;-110.320;2022-08-19T05:24:36;26.30;99.90
64501;DHT22;50874;24.150;-110.320;2022-08-19T05:27:03;26.30;99.90
64501;DHT22;50874;24.150;-110.320;2022-08-19T05:29:32;26.30;99.90
64501;DHT22;50874;24.150;-110.320;2022-08-19T05:32:03;26.30;99.90
64501;DHT22;50874;24.150;-110.320;2022-08-19T05:34:31;26.20;99.90
64501;DHT22;50874;24.150;-110.320;2022-08-19T05:37:01;26.20;99.90
64501;DHT22;50874;24.150;-110.320;2022-08-19T05:39:29;26.20;99.90
64501;DHT22;50874;24.150;-110.320;2022-08-19T05:42:00;26.20;99.90
64501;DHT22;50874;24.150;-110.320;2022-08-19T05:44:28;26.20;99.90
64501;DHT22;50874;24.150;-110.320;2022-08-19T05:47:00;26.20;99.90
64501;DHT22;50874;24.150;-110.320;2022-08-19T05:49:28;26.20;99.90
64501;DHT22;50874;24.150;-110.320;2022-08-19T05:51:55;26.10;99.90
64501;DHT22;50874;24.150;-110.320;2022-08-19T05:54:23;26.10;99.90
64501;DHT22;50874;24.150;-110.320;2022-08-19T05:56:51;26.10;99.90
64501;DHT22;50874;24.150;-110.320;2022-08-19T05:59:18;26.10;99.90
64501;DHT22;50874;24.150;-110.320;2022-08-19T06:01:48;26.10;99.90
64501;DHT22;50874;24.150;-110.320;2022-08-19T06:04:20;26.10;99.90
64501;DHT22;50874;24.150;-110.320;2022-08-19T06:06:50;26.10;99.90
64501;DHT22;50874;24.150;-110.320;2022-08-19T06:09:18;26.10;99.90
64501;DHT22;50874;24.150;-110.320;2022-08-19T06:11:51;26.10;99.90
64501;DHT22;50874;24.150;-110.320;2022-08-19T06:14:24;26.10;99.90
64501;DHT22;50874;24.150;-110.320;2022-08-19T06:16:51;26.10;99.90
64501;DHT22;50874;24.150;-110.320;2022-08-19T06:19:20;26.00;99.90
64501;DHT22;50874;24.150;-110.320;2022-08-19T06:21:49;26.00;99.90
64501;DHT22;50874;24.150;-110.320;2022-08-19T06:24:19;26.00;99.90
64501;DHT22;50874;24.150;-110.320;2022-08-19T06:26:47;26.10;99.90
64501;DHT22;50874;24.150;-110.320;2022-08-19T06:29:16;26.10;99.90
64501;DHT22;50874;24.150;-110.320;2022-08-19T06:31:46;26.10;99.90
64501;DHT22;50874;24.150;-110.320;2022-08-19T06:34:12;26.10;99.90
64501;DHT22;50874;24.150;-110.320;2022-08-19T06:36:42;26.20;99.90
64501;DHT22;50874;24.150;-110.320;2022-08-19T06:39:15;26.10;99.90
64501;DHT22;50874;24.150;-110.320;2022-08-19T06:41:44;26.10;99.90
64501;DHT22;50874;24.150;-110.320;2022-08-19T06:44:11;26.10;99.90
64501;DHT22;50874;24.150;-110.320;2022-08-19T06:46:39;26.10;99.90
64501;DHT22;50874;24.150;-110.320;2022-08-19T06:49:06;26.10;99.90
64501;DHT22;50874;24.150;-110.320;2022-08-19T06:51:36;26.10;99.90
64501;DHT22;50874;24.150;-110.320;2022-08-19T06:54:02;26.10;99.90
64501;DHT22;50874;24.150;-110.320;2022-08-19T06:56:30;26.10;99.90
64501;DHT22;50874;24.150;-110.320;2022-08-19T06:59:05;26.10;99.90
64501;DHT22;50874;24.150;-110.320;2022-08-19T07:01:39;26.10;99.90
64501;DHT22;50874;24.150;-110.320;2022-08-19T07:04:07;26.00;99.90
64501;DHT22;50874;24.150;-110.320;2022-08-19T07:06:35;26.00;99.90
64501;DHT22;50874;24.150;-110.320;2022-08-19T07:09:04;26.00;99.90
64501;DHT22;50874;24.150;-110.320;2022-08-19T07:11:31;26.00;99.90
64501;DHT22;50874;24.150;-110.320;2022-08-19T07:13:59;26.00;99.90
64501;DHT22;50874;24.150;-110.320;2022-08-19T07:16:26;26.00;99.90
64501;DHT22;50874;24.150;-110.320;2022-08-19T07:18:54;26.00;99.90
64501;DHT22;50874;24.150;-110.320;2022-08-19T07:21:25;26.00;99.90
64501;DHT22;50874;24.150;-110.320;2022-08-19T07:23:56;26.00;99.90
64501;DHT22;50874;24.150;-110.320;2022-08-19T07:26:28;26.00;99.90
64501;DHT22;50874;24.150;-110.320;2022-08-19T07:28:56;26.00;99.90
64501;DHT22;50874;24.150;-110.320;2022-08-19T07:31:28;25.90;99.90
64501;DHT22;50874;24.150;-110.320;2022-08-19T07:33:56;25.90;99.90
64501;DHT22;50874;24.150;-110.320;2022-08-19T07:36:25;25.90;99.90
64501;DHT22;50874;24.150;-110.320;2022-08-19T07:38:56;25.90;99.90
64501;DHT22;50874;24.150;-110.320;2022-08-19T07:41:25;25.90;99.90
64501;DHT22;50874;24.150;-110.320;2022-08-19T07:43:54;25.80;99.90
64501;DHT22;50874;24.150;-110.320;2022-08-19T07:46:21;25.80;99.90
64501;DHT22;50874;24.150;-110.320;2022-08-19T07:48:49;25.80;99.90
64501;DHT22;50874;24.150;-110.320;2022-08-19T07:51:19;25.80;99.90
64501;DHT22;50874;24.150;-110.320;2022-08-19T07:53:48;25.80;99.90
64501;DHT22;50874;24.150;-110.320;2022-08-19T07:56:17;25.80;99.90
64501;DHT22;50874;24.150;-110.320;2022-08-19T07:58:45;25.70;99.90
64501;DHT22;50874;24.150;-110.320;2022-08-19T08:01:14;25.70;99.90
64501;DHT22;50874;24.150;-110.320;2022-08-19T08:03:41;25.70;99.90
64501;DHT22;50874;24.150;-110.320;2022-08-19T08:06:26;25.70;99.90
64501;DHT22;50874;24.150;-110.320;2022-08-19T08:09:12;25.70;99.90
64501;DHT22;50874;24.150;-110.320;2022-08-19T08:14:42;25.70;99.90
64501;DHT22;50874;24.150;-110.320;2022-08-19T08:17:10;25.60;99.90
64501;DHT22;50874;24.150;-110.320;2022-08-19T08:19:38;25.60;99.90
64501;DHT22;50874;24.150;-110.320;2022-08-19T08:22:08;25.60;99.90
64501;DHT22;50874;24.150;-110.320;2022-08-19T08:24:54;25.60;99.90
64501;DHT22;50874;24.150;-110.320;2022-08-19T08:27:24;25.60;99.90
64501;DHT22;50874;24.150;-110.320;2022-08-19T08:29:51;25.60;99.90
64501;DHT22;50874;24.150;-110.320;2022-08-19T08:32:18;25.60;99.90
64501;DHT22;50874;24.150;-110.320;2022-08-19T08:34:44;25.60;99.90
64501;DHT22;50874;24.150;-110.320;2022-08-19T08:37:10;25.60;99.90
64501;DHT22;50874;24.150;-110.320;2022-08-19T08:39:37;25.60;99.90
64501;DHT22;50874;24.150;-110.320;2022-08-19T08:44:44;25.60;99.90
64501;DHT22;50874;24.150;-110.320;2022-08-19T08:47:17;25.60;99.90
64501;DHT22;50874;24.150;-110.320;2022-08-19T08:52:28;25.60;99.90
64501;DHT22;50874;24.150;-110.320;2022-08-19T08:54:58;25.60;99.90
64501;DHT22;50874;24.150;-110.320;2022-08-19T08:57:35;25.60;99.90
64501;DHT22;50874;24.150;-110.320;2022-08-19T09:00:10;25.60;99.90
64501;DHT22;50874;24.150;-110.320;2022-08-19T09:02:38;25.60;99.90
64501;DHT22;50874;24.150;-110.320;2022-08-19T09:05:05;25.60;99.90
64501;DHT22;50874;24.150;-110.320;2022-08-19T09:10:28;25.60;99.90
64501;DHT22;50874;24.150;-110.320;2022-08-19T09:15:58;25.60;99.90
64501;DHT22;50874;24.150;-110.320;2022-08-19T09:18:43;25.50;99.90
64501;DHT22;50874;24.150;-110.320;2022-08-19T09:21:10;25.50;99.90
64501;DHT22;50874;24.150;-110.320;2022-08-19T09:23:37;25.50;99.90
64501;DHT22;50874;24.150;-110.320;2022-08-19T09:26:12;25.50;99.90
64501;DHT22;50874;24.150;-110.320;2022-08-19T09:28:44;25.50;99.90
64501;DHT22;50874;24.150;-110.320;2022-08-19T09:31:13;25.50;99.90
64501;DHT22;50874;24.150;-110.320;2022-08-19T09:33:39;25.50;99.90
64501;DHT22;50874;24.150;-110.320;2022-08-19T09:36:13;25.50;99.90
64501;DHT22;50874;24.150;-110.320;2022-08-19T09:38:40;25.50;99.90
64501;DHT22;50874;24.150;-110.320;2022-08-19T09:41:15;25.50;99.90
64501;DHT22;50874;24.150;-110.320;2022-08-19T09:43:45;25.40;99.90
64501;DHT22;50874;24.150;-110.320;2022-08-19T09:46:12;25.50;99.90
64501;DHT22;50874;24.150;-110.320;2022-08-19T09:48:40;25.40;99.90
64501;DHT22;50874;24.150;-110.320;2022-08-19T09:51:12;25.40;99.90
64501;DHT22;50874;24.150;-110.320;2022-08-19T09:53:44;25.40;99.90
64501;DHT22;50874;24.150;-110.320;2022-08-19T09:56:14;25.40;99.90
64501;DHT22;50874;24.150;-110.320;2022-08-19T09:58:40;25.40;99.90
64501;DHT22;50874;24.150;-110.320;2022-08-19T10:01:08;25.40;99.90
64501;DHT22;50874;24.150;-110.320;2022-08-19T10:03:36;25.40;99.90
64501;DHT22;50874;24.150;-110.320;2022-08-19T10:06:04;25.40;99.90
64501;DHT22;50874;24.150;-110.320;2022-08-19T10:08:34;25.40;99.90
64501;DHT22;50874;24.150;-110.320;2022-08-19T10:11:02;25.40;99.90
64501;DHT22;50874;24.150;-110.320;2022-08-19T10:13:31;25.40;99.90
64501;DHT22;50874;24.150;-110.320;2022-08-19T10:16:10;25.40;99.90
64501;DHT22;50874;24.150;-110.320;2022-08-19T10:18:39;25.40;99.90
64501;DHT22;50874;24.150;-110.320;2022-08-19T10:21:15;25.40;99.90
64501;DHT22;50874;24.150;-110.320;2022-08-19T10:23:45;25.40;99.90
64501;DHT22;50874;24.150;-110.320;2022-08-19T10:26:17;25.40;99.90
64501;DHT22;50874;24.150;-110.320;2022-08-19T10:28:43;25.40;99.90
64501;DHT22;50874;24.150;-110.320;2022-08-19T10:31:19;25.40;99.90
64501;DHT22;50874;24.150;-110.320;2022-08-19T10:33:47;25.40;99.90
64501;DHT22;50874;24.150;-110.320;2022-08-19T10:36:20;25.40;99.90
64501;DHT22;50874;24.150;-110.320;2022-08-19T10:38:51;25.40;99.90
64501;DHT22;50874;24.150;-110.320;2022-08-19T10:41:23;25.40;99.90
64501;DHT22;50874;24.150;-110.320;2022-08-19T10:43:54;25.40;99.90
64501;DHT22;50874;24.150;-110.320;2022-08-19T10:46:23;25.30;99.90
64501;DHT22;50874;24.150;-110.320;2022-08-19T10:48:50;25.30;99.90
64501;DHT22;50874;24.150;-110.320;2022-08-19T10:51:16;25.30;99.90
64501;DHT22;50874;24.150;-110.320;2022-08-19T10:54:03;25.30;99.90
64501;DHT22;50874;24.150;-110.320;2022-08-19T10:56:30;25.30;99.90
64501;DHT22;50874;24.150;-110.320;2022-08-19T10:59:15;25.30;99.90
64501;DHT22;50874;24.150;-110.320;2022-08-19T11:01:44;25.30;99.90
64501;DHT22;50874;24.150;-110.320;2022-08-19T11:04:11;25.30;99.90
64501;DHT22;50874;24.150;-110.320;2022-08-19T11:06:45;25.30;99.90
64501;DHT22;50874;24.150;-110.320;2022-08-19T11:09:18;25.30;99.90
64501;DHT22;50874;24.150;-110.320;2022-08-19T11:11:45;25.30;99.90
64501;DHT22;50874;24.150;-110.320;2022-08-19T11:14:15;25.20;99.90
64501;DHT22;50874;24.150;-110.320;2022-08-19T11:16:45;25.30;99.90
64501;DHT22;50874;24.150;-110.320;2022-08-19T11:19:12;25.30;99.90
64501;DHT22;50874;24.150;-110.320;2022-08-19T11:21:43;25.30;99.90
64501;DHT22;50874;24.150;-110.320;2022-08-19T11:24:16;25.30;99.90
64501;DHT22;50874;24.150;-110.320;2022-08-19T11:26:43;25.20;99.90
64501;DHT22;50874;24.150;-110.320;2022-08-19T11:29:12;25.20;99.90
64501;DHT22;50874;24.150;-110.320;2022-08-19T11:31:41;25.20;99.90
64501;DHT22;50874;24.150;-110.320;2022-08-19T11:34:12;25.20;99.90
64501;DHT22;50874;24.150;-110.320;2022-08-19T11:36:41;25.20;99.90
64501;DHT22;50874;24.150;-110.320;2022-08-19T11:39:09;25.20;99.90
64501;DHT22;50874;24.150;-110.320;2022-08-19T11:41:36;25.20;99.90
64501;DHT22;50874;24.150;-110.320;2022-08-19T11:44:03;25.20;99.90
64501;DHT22;50874;24.150;-110.320;2022-08-19T11:46:30;25.20;99.90
64501;DHT22;50874;24.150;-110.320;2022-08-19T11:48:58;25.20;99.90
64501;DHT22;50874;24.150;-110.320;2022-08-19T11:51:27;25.20;99.90
64501;DHT22;50874;24.150;-110.320;2022-08-19T11:53:55;25.20;99.90
64501;DHT22;50874;24.150;-110.320;2022-08-19T11:56:22;25.20;99.90
64501;DHT22;50874;24.150;-110.320;2022-08-19T11:58:50;25.20;99.90
64501;DHT22;50874;24.150;-110.320;2022-08-19T12:01:19;25.20;99.90
64501;DHT22;50874;24.150;-110.320;2022-08-19T12:03:47;25.20;99.90
64501;DHT22;50874;24.150;-110.320;2022-08-19T12:06:17;25.20;99.90
64501;DHT22;50874;24.150;-110.320;2022-08-19T12:08:44;25.20;99.90
64501;DHT22;50874;24.150;-110.320;2022-08-19T12:11:12;25.20;99.90
64501;DHT22;50874;24.150;-110.320;2022-08-19T12:13:40;25.30;99.90
64501;DHT22;50874;24.150;-110.320;2022-08-19T12:16:16;25.20;99.90
64501;DHT22;50874;24.150;-110.320;2022-08-19T12:18:43;25.20;99.90
64501;DHT22;50874;24.150;-110.320;2022-08-19T12:21:12;25.20;99.90
64501;DHT22;50874;24.150;-110.320;2022-08-19T12:23:41;25.20;99.90
64501;DHT22;50874;24.150;-110.320;2022-08-19T12:26:09;25.20;99.90
64501;DHT22;50874;24.150;-110.320;2022-08-19T12:28:36;25.20;99.90
64501;DHT22;50874;24.150;-110.320;2022-08-19T12:31:03;25.20;99.90
64501;DHT22;50874;24.150;-110.320;2022-08-19T12:33:30;25.20;99.90
64501;DHT22;50874;24.150;-110.320;2022-08-19T12:36:03;25.20;99.90
64501;DHT22;50874;24.150;-110.320;2022-08-19T12:38:31;25.20;99.90
64501;DHT22;50874;24.150;-110.320;2022-08-19T12:41:00;25.20;99.90
64501;DHT22;50874;24.150;-110.320;2022-08-19T12:43:26;25.10;99.90
64501;DHT22;50874;24.150;-110.320;2022-08-19T12:45:53;25.10;99.90
64501;DHT22;50874;24.150;-110.320;2022-08-19T12:48:20;25.10;99.90
64501;DHT22;50874;24.150;-110.320;2022-08-19T12:50:46;25.10;99.90
64501;DHT22;50874;24.150;-110.320;2022-08-19T12:53:13;25.10;99.90
64501;DHT22;50874;24.150;-110.320;2022-08-19T12:55:40;25.10;99.90
64501;DHT22;50874;24.150;-110.320;2022-08-19T12:58:09;25.10;99.90
64501;DHT22;50874;24.150;-110.320;2022-08-19T13:00:35;25.10;99.90
64501;DHT22;50874;24.150;-110.320;2022-08-19T13:03:02;25.10;99.90
64501;DHT22;50874;24.150;-110.320;2022-08-19T13:05:31;25.10;99.90
64501;DHT22;50874;24.150;-110.320;2022-08-19T13:07:59;25.10;99.90
64501;DHT22;50874;24.150;-110.320;2022-08-19T13:10:30;25.10;99.90
64501;DHT22;50874;24.150;-110.320;2022-08-19T13:13:06;25.20;99.90
64501;DHT22;50874;24.150;-110.320;2022-08-19T13:15:39;25.20;99.90
64501;DHT22;50874;24.150;-110.320;2022-08-19T13:18:07;25.20;99.90
64501;DHT22;50874;24.150;-110.320;2022-08-19T13:20:36;25.20;99.90
64501;DHT22;50874;24.150;-110.320;2022-08-19T13:23:03;25.20;99.90
64501;DHT22;50874;24.150;-110.320;2022-08-19T13:25:30;25.20;99.90
64501;DHT22;50874;24.150;-110.320;2022-08-19T13:27:56;25.20;99.90
64501;DHT22;50874;24.150;-110.320;2022-08-19T13:30:23;25.30;99.90
64501;DHT22;50874;24.150;-110.320;2022-08-19T13:33:09;25.30;99.90
64501;DHT22;50874;24.150;-110.320;2022-08-19T13:35:43;25.40;99.90
64501;DHT22;50874;24.150;-110.320;2022-08-19T13:38:11;25.50;99.90
64501;DHT22;50874;24.150;-110.320;2022-08-19T13:40:39;25.70;99.90
64501;DHT22;50874;24.150;-110.320;2022-08-19T13:43:06;25.90;99.90
64501;DHT22;50874;24.150;-110.320;2022-08-19T13:45:34;26.20;99.90
64501;DHT22;50874;24.150;-110.320;2022-08-19T13:48:06;26.50;99.90
64501;DHT22;50874;24.150;-110.320;2022-08-19T13:50:38;26.80;99.90
64501;DHT22;50874;24.150;-110.320;2022-08-19T13:53:04;27.00;99.90
64501;DHT22;50874;24.150;-110.320;2022-08-19T13:55:31;27.20;99.90
64501;DHT22;50874;24.150;-110.320;2022-08-19T13:57:59;27.40;99.90
64501;DHT22;50874;24.150;-110.320;2022-08-19T14:00:29;27.40;99.90
64501;DHT22;50874;24.150;-110.320;2022-08-19T14:02:57;27.60;99.90
64501;DHT22;50874;24.150;-110.320;2022-08-19T14:05:25;28.00;99.90
64501;DHT22;50874;24.150;-110.320;2022-08-19T14:07:52;28.40;99.90
64501;DHT22;50874;24.150;-110.320;2022-08-19T14:10:21;28.70;99.90
64501;DHT22;50874;24.150;-110.320;2022-08-19T14:12:47;29.00;99.90
64501;DHT22;50874;24.150;-110.320;2022-08-19T14:15:15;29.20;99.90
64501;DHT22;50874;24.150;-110.320;2022-08-19T14:17:44;29.20;99.90
64501;DHT22;50874;24.150;-110.320;2022-08-19T14:20:13;29.40;99.90
64501;DHT22;50874;24.150;-110.320;2022-08-19T14:22:41;29.60;99.90
64501;DHT22;50874;24.150;-110.320;2022-08-19T14:25:10;29.60;99.90
64501;DHT22;50874;24.150;-110.320;2022-08-19T14:27:40;29.80;99.90
64501;DHT22;50874;24.150;-110.320;2022-08-19T14:30:09;30.00;99.90
64501;DHT22;50874;24.150;-110.320;2022-08-19T14:32:36;30.30;99.90
64501;DHT22;50874;24.150;-110.320;2022-08-19T14:35:04;30.60;99.90
64501;DHT22;50874;24.150;-110.320;2022-08-19T14:37:30;30.80;99.90
64501;DHT22;50874;24.150;-110.320;2022-08-19T14:39:57;31.00;99.90
64501;DHT22;50874;24.150;-110.320;2022-08-19T14:42:23;31.10;99.90
64501;DHT22;50874;24.150;-110.320;2022-08-19T14:44:50;31.10;99.90
64501;DHT22;50874;24.150;-110.320;2022-08-19T14:47:16;31.40;99.90
64501;DHT22;50874;24.150;-110.320;2022-08-19T14:49:43;31.50;99.90
64501;DHT22;50874;24.150;-110.320;2022-08-19T14:52:09;31.60;99.90
64501;DHT22;50874;24.150;-110.320;2022-08-19T14:54:36;31.80;99.90
64501;DHT22;50874;24.150;-110.320;2022-08-19T14:57:02;32.00;99.90
64501;DHT22;50874;24.150;-110.320;2022-08-19T14:59:29;32.00;99.90
64501;DHT22;50874;24.150;-110.320;2022-08-19T15:01:55;31.90;99.90
64501;DHT22;50874;24.150;-110.320;2022-08-19T15:04:22;32.40;99.90
64501;DHT22;50874;24.150;-110.320;2022-08-19T15:06:48;32.50;99.90
64501;DHT22;50874;24.150;-110.320;2022-08-19T15:09:16;32.20;99.90
64501;DHT22;50874;24.150;-110.320;2022-08-19T15:11:43;32.30;99.90
64501;DHT22;50874;24.150;-110.320;2022-08-19T15:14:09;32.80;99.90